createdAt,value
2023-05-19T00:02:04.452Z,77.77139
2023-05-19T00:07:05.958Z,84.45724
2023-05-19T00:12:07.325Z,86.02767
2023-05-19T00:17:08.824Z,83.93923
2023-05-19T00:22:10.105Z,85.3071
2023-05-19T00:27:11.673Z,87.40863
2023-05-19T00:32:13.136Z,87.77239
2023-05-19T00:37:14.552Z,86.99096
2023-05-19T00:42:16.344Z,86.64916
2023-05-19T00:47:17.717Z,90.13201
2023-05-19T00:52:19.160Z,86.80244
2023-05-19T00:57:20.636Z,88.10248
2023-05-19T01:02:22.269Z,88.53231
2023-05-19T01:07:23.693Z,91.0711
2023-05-19T01:12:25.039Z,89.64641
2023-05-19T01:17:26.597Z,94.75776
2023-05-19T01:22:27.883Z,93.3536
2023-05-19T01:27:29.843Z,94.48965
2023-05-19T01:32:31.269Z,94.62715
2023-05-19T01:37:32.613Z,95.47168
2023-05-19T01:42:34.458Z,96.47069
2023-05-19T01:47:36.024Z,97.36568
2023-05-19T01:52:37.336Z,96.78704
2023-05-19T01:57:38.831Z,96.3061
2023-05-19T02:02:40.220Z,100
2023-05-19T02:07:41.723Z,97.35788
2023-05-19T02:12:43.113Z,100
2023-05-19T02:17:44.745Z,100
2023-05-19T02:22:46.158Z,100
2023-05-19T02:27:47.954Z,100
2023-05-19T02:32:49.354Z,100
2023-05-19T02:37:50.806Z,100
2023-05-19T02:42:52.985Z,100
2023-05-19T02:47:54.542Z,100
2023-05-19T02:52:55.833Z,100
2023-05-19T02:57:57.168Z,100
2023-05-19T03:02:58.548Z,100
2023-05-19T03:08:00.262Z,97.54564
2023-05-19T03:13:01.523Z,97.34786
2023-05-19T03:18:02.814Z,94.96689
2023-05-19T03:23:04.189Z,96.03342
2023-05-19T03:28:05.932Z,93.41011
2023-05-19T03:33:07.892Z,95.93684
2023-05-19T03:38:09.845Z,95.2633
2023-05-19T03:43:11.776Z,95.25603
2023-05-19T03:48:13.413Z,95.19129
2023-05-19T03:53:15.005Z,96.74775
2023-05-19T03:58:16.541Z,100
2023-05-19T04:03:18.137Z,100
2023-05-19T04:08:19.953Z,100
2023-05-19T04:13:21.481Z,97.14474
2023-05-19T04:18:22.905Z,100
2023-05-19T04:23:24.175Z,100
2023-05-19T04:28:25.449Z,99.31857
2023-05-19T04:33:27.033Z,98.52258
2023-05-19T04:38:28.634Z,98.32029
2023-05-19T04:43:30.475Z,97.98571
2023-05-19T04:48:31.849Z,100
2023-05-19T04:53:33.112Z,100
2023-05-19T04:58:34.439Z,98.39767
2023-05-19T05:03:36.111Z,94.94393
2023-05-19T05:08:37.486Z,92.77906
2023-05-19T05:13:39.064Z,90.34251
2023-05-19T05:18:42.228Z,87.31888
2023-05-19T05:23:45.937Z,86.17909
2023-05-19T05:28:47.651Z,86.85352
2023-05-19T05:33:49.055Z,82.05076
2023-05-19T05:38:50.403Z,79.67995
2023-05-19T05:43:52.167Z,79.45317
2023-05-19T05:48:53.805Z,78.01825
2023-05-19T05:53:55.646Z,75.73692
2023-05-19T05:58:57.386Z,76.80315
2023-05-19T06:03:59.021Z,77.82789
2023-05-19T06:09:00.639Z,77.3104
2023-05-19T06:14:02.250Z,75.93558
2023-05-19T06:19:03.942Z,74.15909
2023-05-19T06:24:05.778Z,73.45583
2023-05-19T06:29:07.369Z,73.74284
2023-05-19T06:34:08.966Z,68.88679
2023-05-19T06:39:10.526Z,65.92301
2023-05-19T06:44:11.951Z,64.33764
2023-05-19T06:49:13.245Z,62.95568
2023-05-19T06:54:14.550Z,63.89986
2023-05-19T06:59:15.797Z,59.86229
2023-05-19T07:04:17.432Z,60.4181
2023-05-19T07:09:19.043Z,59.10918
2023-05-19T07:14:21.221Z,57.60838
2023-05-19T07:19:22.869Z,56.56614
2023-05-19T07:24:24.569Z,56.30941
2023-05-19T07:29:26.133Z,54.69475
2023-05-19T07:34:27.816Z,57.80698
2023-05-19T07:39:29.446Z,56.16388
2023-05-19T07:44:31.608Z,57.21099
2023-05-19T07:49:33.476Z,53.73112
2023-05-19T07:54:34.715Z,54.67237
2023-05-19T07:59:36.072Z,54.1971
2023-05-19T08:04:37.480Z,51.46765
2023-05-19T08:09:38.779Z,52.28052
2023-05-19T08:14:40.205Z,50.34438
2023-05-19T08:19:41.504Z,48.28756
2023-05-19T08:24:42.781Z,50.39107
2023-05-19T08:29:44.379Z,47.64567
2023-05-19T08:34:45.914Z,44.62391
2023-05-19T08:39:47.521Z,44.0413
2023-05-19T08:44:49.465Z,44.26763
2023-05-19T08:49:51.143Z,40.09014
2023-05-19T08:54:52.700Z,41.01662
2023-05-19T08:59:54.216Z,41.45294
2023-05-19T09:04:55.604Z,40.85093
2023-05-19T09:09:57.157Z,37.98794
2023-05-19T09:14:58.536Z,38.06395
2023-05-19T09:20:00.215Z,35.44261
2023-05-19T09:25:01.879Z,37.49645
2023-05-19T09:30:03.548Z,36.90317
2023-05-19T09:35:05.371Z,35.85105
2023-05-19T09:40:06.964Z,35.38871
2023-05-19T09:45:09.177Z,33.86945
2023-05-19T09:50:10.933Z,32.44165
2023-05-19T09:55:12.513Z,29.55131
2023-05-19T10:00:14.190Z,31.03366
2023-05-19T10:05:15.837Z,32.51565
2023-05-19T10:10:17.708Z,33.45482
2023-05-19T10:15:21.403Z,30.32652
2023-05-19T10:20:24.800Z,29.48886
2023-05-19T10:25:26.624Z,30.38349
2023-05-19T10:30:28.261Z,28.24988
2023-05-19T10:35:30.331Z,31.8515
2023-05-19T10:40:33.085Z,30.17073
2023-05-19T10:45:35.448Z,29.34837
2023-05-19T10:50:37.355Z,28.68969
2023-05-19T10:55:38.620Z,28.81536
2023-05-19T11:00:39.941Z,28.98604
2023-05-19T11:05:41.504Z,29.07269
2023-05-19T11:10:42.821Z,27.20992
2023-05-19T11:15:44.230Z,30.37862
2023-05-19T11:20:45.580Z,28.92292
2023-05-19T11:25:47.058Z,27.68285
2023-05-19T11:30:48.457Z,28.26959
2023-05-19T11:35:56.486Z,29.16039
2023-05-19T11:40:58.042Z,29.0395
2023-05-19T11:46:00.418Z,26.66308
2023-05-19T11:51:01.973Z,25.31477
2023-05-19T11:56:03.622Z,27.49887
2023-05-19T12:01:05.612Z,28.51427
2023-05-19T12:06:07.188Z,27.42791
2023-05-19T12:11:08.829Z,25.98024
2023-05-19T12:16:10.460Z,27.05119
2023-05-19T12:21:12.043Z,26.59759
2023-05-19T12:26:13.552Z,27.24257
2023-05-19T12:31:15.236Z,26.26092
2023-05-19T12:36:16.977Z,28.40708
2023-05-19T12:41:18.740Z,27.77513
2023-05-19T12:46:20.323Z,26.48605
2023-05-19T12:51:22.105Z,26.75709
2023-05-19T12:56:24.116Z,26.80737
2023-05-19T13:01:25.852Z,25.93895
2023-05-19T13:06:27.586Z,25.84144
2023-05-19T13:11:29.161Z,24.79964
2023-05-19T13:16:31.002Z,24.82285
2023-05-19T13:21:32.452Z,25.62063
2023-05-19T13:26:33.884Z,25.10918
2023-05-19T13:31:35.589Z,24.44806
2023-05-19T13:36:37.368Z,24.31475
2023-05-19T13:41:38.717Z,24.45364
2023-05-19T13:46:45.322Z,24.67643
2023-05-19T13:51:48.106Z,24.05799
2023-05-19T13:56:49.774Z,24.11859
2023-05-19T14:01:51.394Z,23.40473
2023-05-19T14:06:52.873Z,23.08403
2023-05-19T14:11:54.374Z,23.69523
2023-05-19T14:16:55.709Z,22.56104
2023-05-19T14:21:57.326Z,23.8798
2023-05-19T14:26:58.659Z,24.03563
2023-05-19T14:32:00.266Z,24.4847
2023-05-19T14:37:01.737Z,24.65161
2023-05-19T14:42:02.994Z,24.89625
2023-05-19T14:47:04.503Z,26.06768
2023-05-19T14:52:05.992Z,27.28238
2023-05-19T14:57:07.702Z,27.66083
2023-05-19T15:02:09.717Z,27.78698
2023-05-19T15:07:11.409Z,28.35826
2023-05-19T15:12:12.924Z,30.07165
2023-05-19T15:17:14.910Z,30.24123
2023-05-19T15:22:16.676Z,30.50562
2023-05-19T15:27:18.353Z,31.30662
2023-05-19T15:32:19.979Z,32.18344
2023-05-19T15:37:22.244Z,32.04339
2023-05-19T15:42:23.863Z,33.20904
2023-05-19T15:47:25.469Z,33.41034
2023-05-19T15:52:27.206Z,34.77474
2023-05-19T15:57:28.738Z,35.03233
2023-05-19T16:02:30.374Z,35.0847
2023-05-19T16:07:31.971Z,35.6288
2023-05-19T16:12:33.673Z,36.50138
2023-05-19T16:17:35.057Z,36.80926
2023-05-19T16:22:36.324Z,37.92942
2023-05-19T16:27:37.721Z,38.37624
2023-05-19T16:32:39.122Z,38.35765
2023-05-19T16:37:40.615Z,40.28112
2023-05-19T16:42:41.896Z,41.22891
2023-05-19T16:47:43.343Z,41.93219
2023-05-19T16:52:45.207Z,44.15654
2023-05-19T16:57:46.768Z,44.43528
2023-05-19T17:02:48.578Z,43.69339
2023-05-19T17:07:50.218Z,43.73924
2023-05-19T17:12:51.777Z,45.66596
2023-05-19T17:17:53.383Z,46.53175
2023-05-19T17:22:55.046Z,47.70724
2023-05-19T17:27:56.618Z,45.77606
2023-05-19T17:32:58.266Z,47.48999
2023-05-19T17:37:59.968Z,48.73787
2023-05-19T17:43:01.783Z,48.4184
2023-05-19T17:48:03.419Z,49.60411
2023-05-19T17:53:05.054Z,50.60405
2023-05-19T17:58:06.635Z,50.71903
2023-05-19T18:03:08.337Z,50.68833
2023-05-19T18:08:09.995Z,51.7793
2023-05-19T18:13:11.273Z,53.24367
2023-05-19T18:18:12.958Z,52.20993
2023-05-19T18:23:14.326Z,53.46653
2023-05-19T18:28:15.695Z,55.11334
2023-05-19T18:33:17.336Z,56.43336
2023-05-19T18:38:19.448Z,57.99083
2023-05-19T18:43:21.289Z,56.94039
2023-05-19T18:48:22.765Z,61.64468
2023-05-19T18:53:24.456Z,59.97284
2023-05-19T18:58:26.313Z,59.02642
2023-05-19T19:03:27.816Z,60.25728
2023-05-19T19:08:29.460Z,58.06139
2023-05-19T19:13:30.807Z,57.49379
2023-05-19T19:18:32.521Z,57.55072
2023-05-19T19:23:34.157Z,56.26592
2023-05-19T19:28:35.830Z,55.32221
2023-05-19T19:33:37.355Z,56.35472
2023-05-19T19:38:38.717Z,56.62772
2023-05-19T19:43:41.998Z,58.29174
2023-05-19T19:53:54.132Z,62.20546
2023-05-19T19:58:56.631Z,61.74838
2023-05-19T20:03:59.275Z,63.84653
2023-05-19T20:09:00.909Z,68.78746
2023-05-19T20:19:12.993Z,70.47882
2023-05-19T20:24:14.918Z,68.33567
2023-05-19T20:29:16.376Z,67.8368
2023-05-19T20:34:17.942Z,69.1557
2023-05-19T20:39:19.498Z,68.2669
2023-05-19T20:44:20.979Z,68.86018
2023-05-19T20:49:22.580Z,71.97953
2023-05-19T20:54:24.204Z,71.18633
2023-05-19T20:59:25.932Z,69.11899
2023-05-19T21:04:27.575Z,70.05094
2023-05-19T21:09:29.416Z,70.82009
2023-05-19T21:14:30.986Z,75.75638
2023-05-19T21:19:32.629Z,75.981
2023-05-19T21:24:34.244Z,77.48608
2023-05-19T21:29:35.888Z,75.29759
2023-05-19T21:34:37.665Z,77.69648
2023-05-19T21:39:39.151Z,75.22221
2023-05-19T21:44:40.474Z,76.14725
2023-05-19T21:49:41.899Z,75.65716
2023-05-19T21:54:43.253Z,74.57627
2023-05-19T21:59:44.557Z,75.65807
2023-05-19T22:04:46.001Z,76.45201
2023-05-19T22:09:48.907Z,78.036
2023-05-19T22:14:50.339Z,76.33823
2023-05-19T22:19:51.666Z,78.13515
2023-05-19T22:24:53.309Z,78.26216
2023-05-19T22:29:54.584Z,79.47374
2023-05-19T22:34:56.055Z,77.03348
2023-05-19T22:39:57.414Z,77.76967
2023-05-19T22:44:58.662Z,79.99372
2023-05-19T22:50:00.229Z,81.71806
2023-05-19T22:55:01.884Z,82.62588
2023-05-19T23:00:03.485Z,83.43863
2023-05-19T23:05:05.259Z,80.48062
2023-05-19T23:10:06.770Z,81.82755
2023-05-19T23:15:08.278Z,81.45544
2023-05-19T23:20:09.732Z,81.52831
2023-05-19T23:25:11.304Z,85.36487
2023-05-19T23:30:12.853Z,86.66218
2023-05-19T23:35:14.485Z,81.17643
2023-05-19T23:40:16.017Z,86.39097
2023-05-19T23:45:17.725Z,84.57948
2023-05-19T23:50:19.287Z,86.81151
2023-05-19T23:55:20.861Z,83.95071
